createdAt,value
2022-12-24T00:02:10.803Z,100079.06
2022-12-24T00:05:12.665Z,100079.22
2022-12-24T00:08:14.167Z,100078.38
2022-12-24T00:11:16.288Z,100082.03
2022-12-24T00:14:17.883Z,100083.91
2022-12-24T00:17:19.483Z,100084.84
2022-12-24T00:20:21.029Z,100083.25
2022-12-24T00:23:22.675Z,100079.81
2022-12-24T00:26:24.241Z,100072.84
2022-12-24T00:29:25.845Z,100078.13
2022-12-24T00:32:27.414Z,100075.50
2022-12-24T00:35:29.579Z,100087.91
2022-12-24T00:38:31.215Z,100074.78
2022-12-24T00:41:32.876Z,100075.75
2022-12-24T00:44:34.457Z,100079.22
2022-12-24T00:47:36.076Z,100088.94
2022-12-24T00:50:37.605Z,100087.13
2022-12-24T00:53:39.301Z,100090.81
2022-12-24T00:56:40.923Z,100102.28
2022-12-24T00:59:42.446Z,100091.72
2022-12-24T01:02:44.177Z,100092.75
2022-12-24T01:05:46.366Z,100103.28
2022-12-24T01:08:51.557Z,100113.84
2022-12-24T01:11:53.165Z,100112.97
2022-12-24T01:14:54.702Z,100114.69
2022-12-24T01:17:56.279Z,100115.56
2022-12-24T01:21:03.293Z,100114.69
2022-12-24T01:24:05.071Z,100118.19
2022-12-24T01:27:06.597Z,100126.09
2022-12-24T01:30:10.062Z,100130.53
2022-12-24T01:33:11.620Z,100127.88
2022-12-24T01:36:14.444Z,100133.22
2022-12-24T01:39:16.132Z,100135.84
2022-12-24T01:42:42.193Z,100133.22
2022-12-24T01:45:58.837Z,100146.41
2022-12-24T01:49:02.772Z,100148.38
2022-12-24T01:52:09.421Z,100144.03
2022-12-24T01:55:16.258Z,100149.38
2022-12-24T01:58:18.513Z,100152.03
2022-12-24T02:01:20.260Z,100148.59
2022-12-24T02:04:29.817Z,100163.50
2022-12-24T02:07:32.931Z,100160.91
2022-12-24T02:10:34.539Z,100157.41
2022-12-24T02:13:36.161Z,100160.06
2022-12-24T02:16:43.920Z,100168.81
2022-12-24T02:19:48.514Z,100162.69
2022-12-24T02:23:08.194Z,100168.88
2022-12-24T02:26:47.354Z,100165.47
2022-12-24T02:30:19.776Z,100170.09
2022-12-24T02:33:31.969Z,100173.63
2022-12-24T02:36:40.718Z,100178.06
2022-12-24T02:39:48.616Z,100179.91
2022-12-24T02:42:56.942Z,100179.91
2022-12-24T02:46:03.559Z,100186.97
2022-12-24T02:49:05.558Z,100184.34
2022-12-24T02:52:07.147Z,100187.91
2022-12-24T02:55:20.751Z,100181.78
2022-12-24T02:58:28.459Z,100187.91
2022-12-24T03:01:52.072Z,100192.34
2022-12-24T03:05:15.017Z,100191.38
2022-12-24T03:08:25.575Z,100197.50
2022-12-24T03:11:27.237Z,100200.16
2022-12-24T03:14:30.632Z,100203.56
2022-12-24T03:17:36.630Z,100201.78
2022-12-24T03:21:00.620Z,100212.25
2022-12-24T03:24:02.674Z,100213.09
2022-12-24T03:27:06.990Z,100217.53
2022-12-24T03:30:12.507Z,100222.81
2022-12-24T03:33:14.410Z,100227.06
2022-12-24T03:36:16.523Z,100234.97
2022-12-24T03:39:19.029Z,100236.00
2022-12-24T03:42:20.700Z,100242.88
2022-12-24T03:45:22.347Z,100261.34
2022-12-24T03:48:28.982Z,100256.84
2022-12-24T03:51:34.034Z,100258.53
2022-12-24T03:54:35.579Z,100252.34
2022-12-24T03:57:37.161Z,100246.22
2022-12-24T04:00:39.003Z,100254.97
2022-12-24T04:03:40.533Z,100256.69
2022-12-24T04:06:42.140Z,100256.53
2022-12-24T04:09:43.992Z,100256.41
2022-12-24T04:12:45.529Z,100251.84
2022-12-24T04:15:57.077Z,100256.09
2022-12-24T04:18:58.626Z,100251.75
2022-12-24T04:22:00.283Z,100250.13
2022-12-24T04:25:01.946Z,100252.84
2022-12-24T04:28:03.615Z,100254.72
2022-12-24T04:31:08.304Z,100263.53
2022-12-24T04:34:09.861Z,100265.41
2022-12-24T04:37:11.398Z,100274.09
2022-12-24T04:40:13.067Z,100270.53
2022-12-24T04:43:15.234Z,100276.56
2022-12-24T04:46:22.029Z,100281.84
2022-12-24T04:49:23.700Z,100280.13
2022-12-24T04:52:25.275Z,100275.72
2022-12-24T04:55:26.823Z,100282.75
2022-12-24T04:58:28.534Z,100293.31
2022-12-24T05:01:32.856Z,100292.44
2022-12-24T05:04:34.673Z,100289.00
2022-12-24T05:07:36.222Z,100288.91
2022-12-24T05:10:37.781Z,100293.31
2022-12-24T05:13:46.190Z,100294.19
2022-12-24T05:16:49.024Z,100295.03
2022-12-24T05:19:50.554Z,100296.81
2022-12-24T05:23:10.772Z,100301.22
2022-12-24T05:26:26.444Z,100303.00
2022-12-24T05:29:28.015Z,100301.31
2022-12-24T05:32:29.972Z,100298.72
2022-12-24T05:35:31.545Z,100301.47
2022-12-24T05:38:33.158Z,100307.59
2022-12-24T05:41:34.681Z,100305.88
2022-12-24T05:44:36.281Z,100311.16
2022-12-24T05:47:43.038Z,100311.63
2022-12-24T05:50:45.078Z,100317.66
2022-12-24T05:53:47.791Z,100321.00
2022-12-24T05:56:49.384Z,100325.44
2022-12-24T05:59:50.966Z,100327.97
2022-12-24T06:02:52.579Z,100346.22
2022-12-24T06:06:11.437Z,100341.56
2022-12-24T06:09:13.081Z,100340.47
2022-12-24T06:12:14.646Z,100351.69
2022-12-24T06:15:23.467Z,100348.00
2022-12-24T06:18:26.407Z,100358.22
2022-12-24T06:21:27.974Z,100357.81
2022-12-24T06:24:29.533Z,100367.31
2022-12-24T06:27:31.093Z,100354.88
2022-12-24T06:30:32.678Z,100360.00
2022-12-24T06:33:35.297Z,100354.53
2022-12-24T06:36:36.850Z,100363.16
2022-12-24T06:39:38.451Z,100367.31
2022-12-24T06:42:40.101Z,100360.09
2022-12-24T06:45:45.790Z,100374.03
2022-12-24T06:48:47.913Z,100374.84
2022-12-24T06:51:49.423Z,100377.34
2022-12-24T06:54:50.969Z,100379.72
2022-12-24T06:57:52.505Z,100385.72
2022-12-24T07:00:54.091Z,100381.63
2022-12-24T07:03:55.677Z,100392.84
2022-12-24T07:06:57.279Z,100393.97
2022-12-24T07:09:58.842Z,100400.63
2022-12-24T07:13:00.397Z,100410.34
2022-12-24T07:16:04.120Z,100415.63
2022-12-24T07:19:05.826Z,100419.28
2022-12-24T07:22:13.410Z,100434.50
2022-12-24T07:25:16.954Z,100441.66
2022-12-24T07:28:23.921Z,100445.31
2022-12-24T07:31:28.981Z,100441.00
2022-12-24T07:34:30.527Z,100450.81
2022-12-24T07:37:32.139Z,100453.69
2022-12-24T07:40:35.151Z,100463.59
2022-12-24T07:43:36.931Z,100473.50
2022-12-24T07:46:38.508Z,100472.72
2022-12-24T07:49:40.140Z,100471.09
2022-12-24T07:52:41.660Z,100461.50
2022-12-24T07:55:44.328Z,100458.09
2022-12-24T07:58:46.148Z,100467.91
2022-12-24T08:01:48.081Z,100467.13
2022-12-24T08:04:49.819Z,100468.16
2022-12-24T08:07:51.382Z,100478.81
2022-12-24T08:10:53.159Z,100475.41
2022-12-24T08:13:55.003Z,100481.63
2022-12-24T08:16:57.245Z,100486.16
2022-12-24T08:19:58.865Z,100492.31
2022-12-24T08:23:00.438Z,100506.41
2022-12-24T08:26:02.587Z,100506.88
2022-12-24T08:29:05.430Z,100499.44
2022-12-24T08:32:07.065Z,100512.94
2022-12-24T08:35:09.030Z,100523.16
2022-12-24T08:38:10.777Z,100538.00
2022-12-24T08:41:12.331Z,100532.66
2022-12-24T08:44:13.872Z,100544.75
2022-12-24T08:47:15.437Z,100536.66
2022-12-24T08:50:17.029Z,100542.59
2022-12-24T08:53:18.593Z,100553.13
2022-12-24T08:56:20.189Z,100558.25
2022-12-24T08:59:21.766Z,100552.75
2022-12-24T09:02:23.653Z,100557.81
2022-12-24T09:05:26.267Z,100562.91
2022-12-24T09:08:29.087Z,100575.13
2022-12-24T09:11:31.062Z,100576.69
2022-12-24T09:14:32.735Z,100577.34
2022-12-24T09:17:35.504Z,100570.16
2022-12-24T09:20:38.068Z,100585.88
2022-12-24T09:23:43.725Z,100587.50
2022-12-24T09:26:55.635Z,100590.16
2022-12-24T09:29:59.127Z,100595.38
2022-12-24T09:33:00.684Z,100596.91
2022-12-24T09:36:02.858Z,100598.50
2022-12-24T09:39:04.452Z,100615.69
2022-12-24T09:42:35.164Z,100624.03
2022-12-24T09:45:41.956Z,100635.16
2022-12-24T09:48:49.284Z,100632.13
2022-12-24T09:51:55.836Z,100645.97
2022-12-24T09:55:12.467Z,100642.38
2022-12-24T09:58:26.091Z,100652.97
2022-12-24T10:01:31.504Z,100660.06
2022-12-24T10:04:34.391Z,100660.94
2022-12-24T10:07:41.734Z,100657.25
2022-12-24T10:11:02.841Z,100652.59
2022-12-24T10:14:20.086Z,100657.75
2022-12-24T10:17:24.517Z,100656.72
2022-12-24T10:20:44.903Z,100663.63
2022-12-24T10:23:54.271Z,100658.44
2022-12-24T10:27:11.298Z,100669.03
2022-12-24T10:30:17.462Z,100663.81
2022-12-24T10:33:28.964Z,100666.66
2022-12-24T10:36:32.002Z,100675.44
2022-12-24T10:39:33.672Z,100679.91
2022-12-24T10:42:50.988Z,100682.47
2022-12-24T10:45:57.449Z,100684.09
2022-12-24T10:49:05.323Z,100686.63
2022-12-24T10:52:14.915Z,100696.22
2022-12-24T10:55:19.107Z,100691.63
2022-12-24T10:58:20.857Z,100695.91
2022-12-24T11:01:45.039Z,100696.66
2022-12-24T11:04:49.510Z,100698.38
2022-12-24T11:08:00.953Z,100710.59
2022-12-24T11:11:08.645Z,100699.72
2022-12-24T11:14:16.471Z,100711.94
2022-12-24T11:17:23.234Z,100702.00
2022-12-24T11:20:28.679Z,100694.81
2022-12-24T11:23:30.934Z,100706.94
2022-12-24T11:26:32.663Z,100709.22
2022-12-24T11:29:34.278Z,100702.72
2022-12-24T11:32:35.845Z,100698.84
2022-12-24T11:35:46.113Z,100703.97
2022-12-24T11:38:55.925Z,100697.63
2022-12-24T11:41:57.486Z,100698.47
2022-12-24T11:45:02.787Z,100696.59
2022-12-24T11:48:28.817Z,100701.72
2022-12-24T11:51:30.339Z,100702.38
2022-12-24T11:54:37.060Z,100707.50
2022-12-24T11:57:50.281Z,100701.78
2022-12-24T12:00:56.521Z,100714.81
2022-12-24T12:04:02.488Z,100710.16
2022-12-24T12:07:14.843Z,100702.00
2022-12-24T12:10:31.094Z,100704.38
2022-12-24T12:13:34.196Z,100698.13
2022-12-24T12:17:00.914Z,100706.84
2022-12-24T12:20:14.653Z,100713.88
2022-12-24T12:23:33.882Z,100721.75
2022-12-24T12:26:35.998Z,100725.25
2022-12-24T12:29:45.779Z,100728.78
2022-12-24T12:33:02.442Z,100729.59
2022-12-24T12:36:05.248Z,100738.44
2022-12-24T12:39:09.152Z,100729.41
2022-12-24T12:42:19.915Z,100729.31
2022-12-24T12:45:51.740Z,100732.81
2022-12-24T12:49:02.859Z,100736.81
2022-12-24T12:52:25.086Z,100744.97
2022-12-24T12:55:51.350Z,100752.78
2022-12-24T12:58:58.758Z,100750.28
2022-12-24T13:02:26.463Z,100756.66
2022-12-24T13:05:31.073Z,100767.38
2022-12-24T13:08:44.830Z,100762.13
2022-12-24T13:12:07.917Z,100759.59
2022-12-24T13:15:44.536Z,100758.91
2022-12-24T13:18:57.715Z,100769.72
2022-12-24T13:21:59.319Z,100777.03
2022-12-24T13:25:00.907Z,100770.88
2022-12-24T13:28:20.720Z,100768.31
2022-12-24T13:31:24.780Z,100774.38
2022-12-24T13:34:37.084Z,100777.78
2022-12-24T13:37:38.589Z,100789.19
2022-12-24T13:40:40.150Z,100788.41
2022-12-24T13:44:06.589Z,100783.31
2022-12-24T13:47:13.937Z,100783.56
2022-12-24T13:50:28.574Z,100790.03
2022-12-24T13:53:43.317Z,100798.09
2022-12-24T13:56:46.113Z,100795.81
2022-12-24T13:59:47.701Z,100804.81
2022-12-24T14:03:16.074Z,100795.22
2022-12-24T14:06:20.369Z,100806.03
2022-12-24T14:09:25.330Z,100800.81
2022-12-24T14:12:45.268Z,100810.69
2022-12-24T14:15:49.752Z,100807.28
2022-12-24T14:19:15.097Z,100805.56
2022-12-24T14:22:40.116Z,100800.41
2022-12-24T14:25:42.463Z,100821.75
2022-12-24T14:29:03.313Z,100820.03
2022-12-24T14:32:15.198Z,100840.41
2022-12-24T14:35:23.649Z,100850.28
2022-12-24T14:38:26.273Z,100862.69
2022-12-24T14:41:40.999Z,100855.69
2022-12-24T14:44:52.689Z,100863.72
2022-12-24T14:48:34.267Z,100870.84
2022-12-24T14:51:58.464Z,100879.91
2022-12-24T14:55:00.065Z,100880.09
2022-12-24T14:58:32.341Z,100883.69
2022-12-24T15:01:36.530Z,100888.91
2022-12-24T15:04:38.199Z,100896.88
2022-12-24T15:07:54.130Z,100905.59
2022-12-24T15:11:00.472Z,100910.06
2022-12-24T15:14:02.148Z,100912.25
2022-12-24T15:17:05.515Z,100924.94
2022-12-24T15:20:14.173Z,100923.31
2022-12-24T15:23:28.141Z,100934.94
2022-12-24T15:26:37.817Z,100938.63
2022-12-24T15:29:42.823Z,100932.66
2022-12-24T15:32:44.530Z,100939.88
2022-12-24T15:35:49.757Z,100940.81
2022-12-24T15:38:53.800Z,100940.97
2022-12-24T15:42:13.844Z,100937.66
2022-12-24T15:45:27.220Z,100957.25
2022-12-24T15:48:32.736Z,100953.84
2022-12-24T15:51:39.972Z,100958.28
2022-12-24T15:54:50.871Z,100965.47
2022-12-24T15:57:57.279Z,100963.84
2022-12-24T16:01:06.788Z,100965.66
2022-12-24T16:04:17.435Z,100978.06
2022-12-24T16:07:26.523Z,100974.53
2022-12-24T16:10:28.205Z,100985.25
2022-12-24T16:13:31.911Z,100986.28
2022-12-24T16:16:46.578Z,100986.44
2022-12-24T16:19:51.557Z,100996.13
2022-12-24T16:22:53.273Z,100996.97
2022-12-24T16:25:54.982Z,101009.47
2022-12-24T16:28:56.628Z,101007.84
2022-12-24T16:31:59.462Z,101012.38
2022-12-24T16:35:03.144Z,101013.28
2022-12-24T16:38:04.749Z,101010.75
2022-12-24T16:41:06.314Z,101012.47
2022-12-24T16:44:07.821Z,101010.75
2022-12-24T16:47:15.388Z,101016.97
2022-12-24T16:50:17.480Z,101019.81
2022-12-24T16:53:21.096Z,101021.59
2022-12-24T16:56:23.385Z,101032.22
2022-12-24T16:59:25.246Z,101033.09
2022-12-24T17:02:26.813Z,101048.22
2022-12-24T17:05:28.507Z,101052.75
2022-12-24T17:08:30.028Z,101057.28
2022-12-24T17:11:31.668Z,101060.88
2022-12-24T17:14:33.645Z,101062.75
2022-12-24T17:17:35.567Z,101073.53
2022-12-24T17:20:38.362Z,101071.81
2022-12-24T17:23:43.848Z,101064.00
2022-12-24T17:26:45.384Z,101076.59
2022-12-24T17:29:47.127Z,101072.31
2022-12-24T17:32:48.732Z,101069.72
2022-12-24T17:35:51.765Z,101074.16
2022-12-24T17:38:53.334Z,101076.91
2022-12-24T17:41:54.945Z,101083.94
2022-12-24T17:44:56.527Z,101089.25
2022-12-24T17:47:58.035Z,101093.69
2022-12-24T17:51:11.183Z,101097.25
2022-12-24T17:54:13.555Z,101104.34
2022-12-24T17:57:15.110Z,101110.50
2022-12-24T18:00:17.348Z,101114.03
2022-12-24T18:03:19.109Z,101118.47
2022-12-24T18:06:21.040Z,101120.34
2022-12-24T18:09:22.652Z,101116.91
2022-12-24T18:12:24.274Z,101116.91
2022-12-24T18:15:25.799Z,101109.84
2022-12-24T18:18:27.358Z,101114.25
2022-12-24T18:21:31.359Z,101115.97
2022-12-24T18:24:32.905Z,101118.56
2022-12-24T18:27:35.414Z,101117.69
2022-12-24T18:30:36.932Z,101118.63
2022-12-24T18:33:39.623Z,101114.25
2022-12-24T18:36:41.466Z,101121.28
2022-12-24T18:39:46.113Z,101126.56
2022-12-24T18:42:47.652Z,101116.03
2022-12-24T18:45:49.179Z,101120.34
2022-12-24T18:48:51.459Z,101129.16
2022-12-24T18:51:53.061Z,101121.22
2022-12-24T18:54:54.665Z,101125.56
2022-12-24T18:57:56.375Z,101125.56
2022-12-24T19:00:58.039Z,101121.22
2022-12-24T19:04:00.294Z,101115.03
2022-12-24T19:07:01.917Z,101123.09
2022-12-24T19:10:04.254Z,101128.41
2022-12-24T19:13:05.826Z,101126.63
2022-12-24T19:16:08.176Z,101132.09
2022-12-24T19:19:12.424Z,101135.75
2022-12-24T19:22:14.029Z,101133.28
2022-12-24T19:25:15.747Z,101129.84
2022-12-24T19:28:21.298Z,101123.84
2022-12-24T19:31:26.363Z,101122.34
2022-12-24T19:34:28.642Z,101118.97
2022-12-24T19:37:30.242Z,101124.53
2022-12-24T19:40:32.215Z,101137.00
2022-12-24T19:43:37.013Z,101134.44
2022-12-24T19:46:38.734Z,101137.94
2022-12-24T19:49:40.296Z,101146.06
2022-12-24T19:52:42.053Z,101156.03
2022-12-24T19:55:46.839Z,101152.59
2022-12-24T19:58:48.928Z,101159.75
2022-12-24T20:01:50.718Z,101165.13
2022-12-24T20:04:52.500Z,101163.41
2022-12-24T20:07:54.063Z,101168.88
2022-12-24T20:10:55.714Z,101173.31
2022-12-24T20:13:59.051Z,101175.19
2022-12-24T20:17:00.682Z,101180.47
2022-12-24T20:20:02.258Z,101178.94
2022-12-24T20:23:04.720Z,101177.22
2022-12-24T20:26:08.061Z,101184.53
2022-12-24T20:29:11.384Z,101205.88
2022-12-24T20:32:13.022Z,101212.28
2022-12-24T20:35:14.699Z,101212.56
2022-12-24T20:38:17.257Z,101209.25
2022-12-24T20:41:22.180Z,101214.06
2022-12-24T20:44:23.799Z,101210.75
2022-12-24T20:47:25.350Z,101219.78
2022-12-24T20:50:27.123Z,101221.81
2022-12-24T20:53:28.705Z,101226.38
2022-12-24T20:56:31.132Z,101236.19
2022-12-24T20:59:32.735Z,101232.66
2022-12-24T21:02:34.388Z,101234.53
2022-12-24T21:05:36.196Z,101239.97
2022-12-24T21:08:38.054Z,101246.25
2022-12-24T21:11:51.590Z,101252.53
2022-12-24T21:14:53.265Z,101245.75
2022-12-24T21:17:55.805Z,101255.69
2022-12-24T21:20:57.433Z,101255.06
2022-12-24T21:23:59.150Z,101252.88
2022-12-24T21:27:00.780Z,101247.91
2022-12-24T21:30:03.225Z,101261.03
2022-12-24T21:33:04.781Z,101264.63
2022-12-24T21:36:06.742Z,101248.91
2022-12-24T21:39:08.311Z,101252.00
2022-12-24T21:42:09.872Z,101252.31
2022-12-24T21:45:11.709Z,101244.72
2022-12-24T21:48:31.741Z,101236.25
2022-12-24T21:51:33.307Z,101233.97
2022-12-24T21:54:34.888Z,101239.50
2022-12-24T21:57:54.622Z,101244.13
2022-12-24T22:00:56.218Z,101239.16
2022-12-24T22:03:57.771Z,101238.63
2022-12-24T22:07:19.232Z,101241.63
2022-12-24T22:10:39.503Z,101245.38
2022-12-24T22:13:41.015Z,101242.16
2022-12-24T22:16:43.210Z,101231.72
2022-12-24T22:19:44.806Z,101234.69
2022-12-24T22:22:47.585Z,101238.50
2022-12-24T22:25:49.157Z,101238.78
2022-12-24T22:28:50.663Z,101238.16
2022-12-24T22:31:52.272Z,101232.47
2022-12-24T22:34:53.850Z,101223.34
2022-12-24T22:37:59.916Z,101217.63
2022-12-24T22:41:07.217Z,101202.25
2022-12-24T22:44:09.996Z,101215.19
2022-12-24T22:47:11.517Z,101205.91
2022-12-24T22:50:13.059Z,101208.06
2022-12-24T22:53:14.707Z,101211.91
2022-12-24T22:56:20.556Z,101213.03
2022-12-24T22:59:22.439Z,101207.06
2022-12-24T23:02:28.164Z,101205.53
2022-12-24T23:05:30.556Z,101215.44
2022-12-24T23:08:33.977Z,101210.22
2022-12-24T23:11:35.679Z,101201.56
2022-12-24T23:14:55.473Z,101213.84
2022-12-24T23:17:57.023Z,101223.53
2022-12-24T23:20:58.641Z,101230.06
2022-12-24T23:24:01.471Z,101245.31
2022-12-24T23:27:03.133Z,101243.97
2022-12-24T23:30:05.275Z,101246.16
2022-12-24T23:33:07.168Z,101259.81
2022-12-24T23:36:09.531Z,101245.25
2022-12-24T23:39:11.235Z,101253.53
2022-12-24T23:42:12.829Z,101250.31
2022-12-24T23:45:14.473Z,101246.25
2022-12-24T23:48:16.027Z,101247.50
2022-12-24T23:51:23.085Z,101253.91
2022-12-24T23:54:24.643Z,101249.75
2022-12-24T23:57:26.276Z,101242.84
